Pagina principale
METAR-TAF:

METAR-TAF

Aeroporti :

Flores, Azzorre, Portogallo

latitudine: 39-27N, longitudine: 031-08W, altezza: 28 m

Osservazione

Il bollettino è stato emesso 1 ora e 4 minuti fa, alle 18:00 UTC
Vento 8 kt da ovest/sud-ovest, variando fra sud/sud-ovest e ovest
Temperature 18°C
Umidità 68%
Pressione 1031 hPa
Visibilità 10 km o più
Poco nuvoloso ad un'altezza di 1700 ft

METAR: LPFL 241800Z 24008KT 210V270 9999 FEW017 18/12 Q1031

Ora: 18:04 (19:04 UTC)


TAF: mancante

Osservazioni e previsioni meteorologiche di più di 4000 aeroporti (messaggi METAR e TAF).

Le stazioni disponibili sono rappresentate dai dischi gialli e rossi sulla carta.

Puntare il mouse per vedere il nome della stazione.

Clicca sopra per visualizzare le osservazioni e previsioni meteorologiche.

Per cambiare la mappa : fare clic sui pulsanti verdi con una croce nera per ingrandire, il pulsante verde con un trattino per diminuire, o sulla freccia verde per le mappe adiacenti.


METAR-TAF: